createdAt,value
2022-09-12T00:00:10.359Z,17.63
2022-09-12T00:02:37.331Z,17.63
2022-09-12T00:05:04.291Z,17.63
2022-09-12T00:07:31.214Z,17.63
2022-09-12T00:09:58.152Z,17.63
2022-09-12T00:12:25.109Z,17.63
2022-09-12T00:14:52.041Z,17.63
2022-09-12T00:17:18.977Z,17.63
2022-09-12T00:19:45.894Z,17.63
2022-09-12T00:22:12.820Z,17.56
2022-09-12T00:24:39.760Z,17.56
2022-09-12T00:27:06.665Z,17.56
2022-09-12T00:29:33.627Z,17.63
2022-09-12T00:32:00.581Z,17.56
2022-09-12T00:34:27.543Z,17.56
2022-09-12T00:36:54.512Z,17.56
2022-09-12T00:39:21.447Z,17.56
2022-09-12T00:41:48.371Z,17.56
2022-09-12T00:44:15.328Z,17.56
2022-09-12T00:46:42.235Z,17.56
2022-09-12T00:49:09.200Z,17.56
2022-09-12T00:51:36.468Z,17.56
2022-09-12T00:54:04.203Z,17.56
2022-09-12T00:56:31.102Z,17.56
2022-09-12T00:58:58.331Z,17.56
2022-09-12T01:01:27.367Z,17.56
2022-09-12T01:03:57.423Z,17.50
2022-09-12T01:06:24.385Z,17.56
2022-09-12T01:08:51.316Z,17.50
2022-09-12T01:11:18.241Z,17.50
2022-09-12T01:13:45.177Z,17.50
2022-09-12T01:16:12.134Z,17.50
2022-09-12T01:18:39.123Z,17.50
2022-09-12T01:21:06.038Z,17.50
2022-09-12T01:23:32.956Z,17.50
2022-09-12T01:25:59.904Z,17.50
2022-09-12T01:28:26.839Z,17.50
2022-09-12T01:30:53.785Z,17.50
2022-09-12T01:33:20.707Z,17.50
2022-09-12T01:35:47.670Z,17.50
2022-09-12T01:38:14.559Z,17.50
2022-09-12T01:40:41.466Z,17.44
2022-09-12T01:43:08.435Z,17.44
2022-09-12T01:45:35.367Z,17.44
2022-09-12T01:48:02.324Z,17.44
2022-09-12T01:50:29.280Z,17.44
2022-09-12T01:52:56.203Z,17.44
2022-09-12T01:55:23.126Z,17.44
2022-09-12T01:57:50.063Z,17.44
2022-09-12T02:00:16.964Z,17.44
2022-09-12T02:02:43.881Z,17.44
2022-09-12T02:05:10.794Z,17.44
2022-09-12T02:07:37.904Z,17.44
2022-09-12T02:10:04.837Z,17.44
2022-09-12T02:12:31.807Z,17.44
2022-09-12T02:14:58.713Z,17.44
2022-09-12T02:17:25.795Z,17.44
2022-09-12T02:19:52.739Z,17.44
2022-09-12T02:22:19.644Z,17.44
2022-09-12T02:24:46.552Z,17.38
2022-09-12T02:27:13.502Z,17.38
2022-09-12T02:29:40.465Z,17.38
2022-09-12T02:32:07.398Z,17.44
2022-09-12T02:34:34.332Z,17.38
2022-09-12T02:37:01.227Z,17.38
2022-09-12T02:39:28.255Z,17.38
2022-09-12T02:41:55.207Z,17.38
2022-09-12T02:44:22.161Z,17.38
2022-09-12T02:46:49.065Z,17.38
2022-09-12T02:49:16.017Z,17.38
2022-09-12T02:51:42.918Z,17.38
2022-09-12T02:54:09.887Z,17.38
2022-09-12T02:56:36.850Z,17.94
2022-09-12T02:59:03.813Z,18.56
2022-09-12T03:01:30.740Z,18.88
2022-09-12T03:03:57.643Z,18.94
2022-09-12T03:06:24.596Z,19.06
2022-09-12T03:08:51.530Z,19.06
2022-09-12T03:11:18.470Z,19.06
2022-09-12T03:13:45.469Z,19.06
2022-09-12T03:16:12.418Z,19.06
2022-09-12T03:18:39.361Z,19.06
2022-09-12T03:21:06.335Z,19.06
2022-09-12T03:23:33.391Z,19.13
2022-09-12T03:26:00.309Z,19.13
2022-09-12T03:28:27.283Z,19.13
2022-09-12T03:30:54.234Z,19.13
2022-09-12T03:33:21.202Z,19.13
2022-09-12T03:35:48.149Z,19.13
2022-09-12T03:38:15.064Z,19.13
2022-09-12T03:40:41.991Z,19.13
2022-09-12T03:43:08.942Z,19.13
2022-09-12T03:45:35.883Z,19.13
2022-09-12T03:48:02.848Z,19.13
2022-09-12T03:50:29.790Z,19.13
2022-09-12T03:52:56.752Z,19.13
2022-09-12T03:55:23.670Z,19.13
2022-09-12T03:57:50.623Z,19.13
2022-09-12T04:00:19.837Z,19.13
2022-09-12T04:02:47.004Z,19.13
2022-09-12T04:05:13.930Z,19.13
2022-09-12T04:07:40.842Z,19.13
2022-09-12T04:10:09.493Z,19.13
2022-09-12T04:12:36.721Z,19.13
2022-09-12T04:15:03.631Z,19.13
2022-09-12T04:17:30.568Z,19.13
2022-09-12T04:19:57.546Z,19.13
2022-09-12T04:22:24.785Z,19.13
2022-09-12T04:24:51.686Z,19.13
2022-09-12T04:27:18.721Z,19.13
2022-09-12T04:29:45.790Z,19.19
2022-09-12T04:32:12.768Z,19.13
2022-09-12T04:34:39.711Z,19.13
2022-09-12T04:37:06.607Z,19.13
2022-09-12T04:39:33.523Z,19.13
2022-09-12T04:42:00.451Z,19.13
2022-09-12T04:44:27.420Z,19.19
2022-09-12T04:46:54.351Z,19.19
2022-09-12T04:49:21.330Z,19.19
2022-09-12T04:51:48.229Z,19.19
2022-09-12T04:54:15.131Z,19.13
2022-09-12T04:56:42.076Z,19.13
2022-09-12T04:59:09.259Z,19.19
2022-09-12T05:01:36.354Z,19.19
2022-09-12T05:04:03.384Z,19.19
2022-09-12T05:06:30.318Z,19.19
2022-09-12T05:08:57.255Z,19.19
2022-09-12T05:11:26.616Z,19.13
2022-09-12T05:13:55.229Z,19.19
2022-09-12T05:16:22.234Z,19.19
2022-09-12T05:18:49.240Z,19.19
2022-09-12T05:21:16.136Z,19.19
2022-09-12T05:23:43.062Z,19.19
2022-09-12T05:26:10.005Z,19.13
2022-09-12T05:28:36.969Z,19.19
2022-09-12T05:31:03.905Z,19.19
2022-09-12T05:33:31.127Z,19.13
2022-09-12T05:35:58.048Z,19.19
2022-09-12T05:38:24.956Z,19.19
2022-09-12T05:40:51.886Z,19.19
2022-09-12T05:43:19.013Z,19.19
2022-09-12T05:45:46.247Z,19.19
2022-09-12T05:48:13.251Z,19.13
2022-09-12T05:50:40.150Z,19.13
2022-09-12T05:53:07.123Z,19.13
2022-09-12T05:55:34.061Z,19.13
2022-09-12T05:58:01.000Z,19.13
2022-09-12T06:00:32.859Z,19.13
2022-09-12T06:03:00.398Z,19.13
2022-09-12T06:05:27.300Z,19.13
2022-09-12T06:07:54.278Z,19.13
2022-09-12T06:10:21.213Z,19.13
2022-09-12T06:12:48.111Z,19.13
2022-09-12T06:15:15.031Z,19.13
2022-09-12T06:17:41.960Z,19.13
2022-09-12T06:20:08.883Z,19.13
2022-09-12T06:22:35.923Z,19.13
2022-09-12T06:25:02.845Z,19.13
2022-09-12T06:27:29.790Z,19.13
2022-09-12T06:29:56.771Z,19.19
2022-09-12T06:32:23.918Z,19.19
2022-09-12T06:34:50.897Z,19.13
2022-09-12T06:37:17.829Z,19.13
2022-09-12T06:39:44.858Z,19.19
2022-09-12T06:42:11.799Z,19.19
2022-09-12T06:44:38.768Z,19.13
2022-09-12T06:47:05.685Z,19.19
2022-09-12T06:49:32.676Z,19.13
2022-09-12T06:51:59.598Z,19.13
2022-09-12T06:54:26.588Z,19.19
2022-09-12T06:56:53.488Z,19.13
2022-09-12T06:59:20.427Z,19.13
2022-09-12T07:01:47.435Z,19.13
2022-09-12T07:04:14.403Z,19.06
2022-09-12T07:06:41.325Z,19.06
2022-09-12T07:09:08.264Z,19.00
2022-09-12T07:11:35.206Z,19.00
2022-09-12T07:14:02.125Z,19.00
2022-09-12T07:16:29.115Z,19.00
2022-09-12T07:18:56.081Z,18.94
2022-09-12T07:21:23.037Z,18.94
2022-09-12T07:23:50.001Z,18.94
2022-09-12T07:26:16.982Z,18.88
2022-09-12T07:28:43.906Z,18.88
2022-09-12T07:31:10.939Z,18.88
2022-09-12T07:33:37.939Z,18.81
2022-09-12T07:36:04.901Z,18.81
2022-09-12T07:38:31.832Z,18.81
2022-09-12T07:40:58.798Z,18.75
2022-09-12T07:43:26.199Z,18.75
2022-09-12T07:45:53.223Z,18.75
2022-09-12T07:48:20.193Z,18.69
2022-09-12T07:50:47.121Z,18.69
2022-09-12T07:53:14.060Z,18.69
2022-09-12T07:55:40.987Z,18.69
2022-09-12T07:58:07.950Z,18.63
2022-09-12T08:00:34.859Z,18.63
2022-09-12T08:03:01.835Z,18.56
2022-09-12T08:05:28.737Z,18.56
2022-09-12T08:07:57.742Z,18.56
2022-09-12T08:10:24.826Z,18.56
2022-09-12T08:12:51.784Z,18.56
2022-09-12T08:15:18.733Z,18.50
2022-09-12T08:17:45.631Z,18.50
2022-09-12T08:20:12.588Z,18.50
2022-09-12T08:22:39.491Z,18.44
2022-09-12T08:25:06.417Z,18.44
2022-09-12T08:27:33.346Z,18.44
2022-09-12T08:30:00.273Z,18.44
2022-09-12T08:32:27.246Z,18.44
2022-09-12T08:34:54.203Z,18.38
2022-09-12T08:37:21.117Z,18.38
2022-09-12T08:39:48.114Z,18.38
2022-09-12T08:42:15.029Z,18.38
2022-09-12T08:44:42.232Z,18.38
2022-09-12T08:47:09.224Z,18.31
2022-09-12T08:49:36.142Z,18.31
2022-09-12T08:52:03.123Z,18.31
2022-09-12T08:54:30.045Z,18.31
2022-09-12T08:56:57.023Z,18.25
2022-09-12T08:59:23.954Z,18.25
2022-09-12T09:01:50.946Z,18.25
2022-09-12T09:04:17.907Z,18.25
2022-09-12T09:06:44.816Z,18.19
2022-09-12T09:09:11.739Z,18.25
2022-09-12T09:11:38.645Z,18.19
2022-09-12T09:14:05.667Z,18.19
2022-09-12T09:16:32.697Z,18.19
2022-09-12T09:18:59.605Z,18.19
2022-09-12T09:21:26.618Z,18.19
2022-09-12T09:23:53.516Z,18.19
2022-09-12T09:26:20.479Z,18.13
2022-09-12T09:28:47.396Z,18.13
2022-09-12T09:31:14.375Z,18.13
2022-09-12T09:33:41.298Z,18.13
2022-09-12T09:36:08.248Z,18.13
2022-09-12T09:38:35.255Z,18.13
2022-09-12T09:41:02.263Z,18.13
2022-09-12T09:43:29.172Z,18.06
2022-09-12T09:45:56.204Z,18.06
2022-09-12T09:48:23.122Z,18.06
2022-09-12T09:50:50.020Z,18.06
2022-09-12T09:53:16.959Z,18.06
2022-09-12T09:55:43.888Z,18.06
2022-09-12T09:58:10.811Z,18.06
2022-09-12T10:00:37.757Z,18.06
2022-09-12T10:03:04.650Z,18.00
2022-09-12T10:05:31.561Z,18.00
2022-09-12T10:07:58.718Z,18.00
2022-09-12T10:10:25.624Z,18.00
2022-09-12T10:12:52.623Z,18.00
2022-09-12T10:15:19.590Z,18.00
2022-09-12T10:17:46.519Z,18.00
2022-09-12T10:20:22.000Z,18.00
2022-09-12T10:22:49.831Z,17.94
2022-09-12T10:25:17.001Z,17.94
2022-09-12T10:27:44.305Z,17.94
2022-09-12T10:30:11.243Z,17.94
2022-09-12T10:32:38.561Z,17.94
2022-09-12T10:35:05.517Z,17.94
2022-09-12T10:37:32.554Z,17.94
2022-09-12T10:39:59.513Z,17.94
2022-09-12T10:42:26.425Z,17.94
2022-09-12T10:44:53.374Z,17.88
2022-09-12T10:47:20.297Z,17.88
2022-09-12T10:49:47.205Z,17.88
2022-09-12T10:52:14.219Z,17.88
2022-09-12T10:54:41.119Z,17.88
2022-09-12T10:57:08.021Z,17.88
2022-09-12T10:59:34.970Z,17.88
2022-09-12T11:02:01.933Z,17.88
2022-09-12T11:04:28.900Z,17.88
2022-09-12T11:06:55.830Z,17.88
2022-09-12T11:09:22.750Z,17.88
2022-09-12T11:11:49.652Z,17.88
2022-09-12T11:14:16.610Z,17.81
2022-09-12T11:16:43.553Z,17.81
2022-09-12T11:19:10.477Z,17.88
2022-09-12T11:21:37.402Z,17.81
2022-09-12T11:24:04.336Z,17.81
2022-09-12T11:26:31.248Z,17.81
2022-09-12T11:28:58.221Z,17.81
2022-09-12T11:31:25.155Z,17.81
2022-09-12T11:33:56.101Z,17.81
2022-09-12T11:36:23.718Z,17.81
2022-09-12T11:38:50.645Z,17.81
2022-09-12T11:41:17.560Z,17.81
2022-09-12T11:43:44.608Z,17.81
2022-09-12T11:46:11.597Z,17.81
2022-09-12T11:48:38.645Z,17.81
2022-09-12T11:51:05.592Z,17.81
2022-09-12T11:53:32.741Z,17.81
2022-09-12T11:55:59.724Z,17.81
2022-09-12T11:58:26.836Z,17.81
2022-09-12T12:00:53.767Z,17.75
2022-09-12T12:03:20.789Z,17.75
2022-09-12T12:05:47.731Z,17.81
2022-09-12T12:08:14.672Z,17.75
2022-09-12T12:10:41.585Z,17.75
2022-09-12T12:13:13.350Z,17.81
2022-09-12T12:15:41.146Z,17.75
2022-09-12T12:18:08.166Z,17.75
2022-09-12T12:20:35.078Z,17.75
2022-09-12T12:23:02.573Z,17.75
2022-09-12T12:25:30.098Z,17.75
2022-09-12T12:27:57.059Z,17.75
2022-09-12T12:30:24.024Z,17.75
2022-09-12T12:32:51.244Z,17.75
2022-09-12T12:35:18.195Z,17.75
2022-09-12T12:37:45.131Z,17.75
2022-09-12T12:40:12.069Z,17.75
2022-09-12T12:42:39.114Z,17.75
2022-09-12T12:45:06.379Z,17.75
2022-09-12T12:47:33.297Z,17.75
2022-09-12T12:50:00.260Z,17.75
2022-09-12T12:52:27.163Z,17.75
2022-09-12T12:54:54.071Z,17.75
2022-09-12T12:57:21.019Z,17.75
2022-09-12T12:59:47.941Z,17.69
2022-09-12T13:02:14.894Z,17.75
2022-09-12T13:04:41.876Z,17.69
2022-09-12T13:07:08.961Z,17.75
2022-09-12T13:09:35.967Z,17.75
2022-09-12T13:12:02.899Z,17.69
2022-09-12T13:14:29.871Z,17.69
2022-09-12T13:16:56.815Z,17.69
2022-09-12T13:19:23.732Z,17.69
2022-09-12T13:21:50.700Z,17.69
2022-09-12T13:24:17.617Z,17.69
2022-09-12T13:26:44.546Z,17.69
2022-09-12T13:29:11.564Z,17.69
2022-09-12T13:31:38.485Z,17.69
2022-09-12T13:34:05.403Z,17.69
2022-09-12T13:36:32.336Z,17.69
2022-09-12T13:38:59.257Z,17.69
2022-09-12T13:41:26.170Z,17.69
2022-09-12T13:43:53.459Z,17.69
2022-09-12T13:46:20.395Z,17.69
2022-09-12T13:48:47.454Z,17.69
2022-09-12T13:51:14.473Z,17.69
2022-09-12T13:53:41.413Z,17.69
2022-09-12T13:56:08.344Z,17.69
2022-09-12T13:58:35.328Z,17.69
2022-09-12T14:01:02.255Z,17.69
2022-09-12T14:03:29.171Z,17.69
2022-09-12T14:05:56.408Z,17.69
2022-09-12T14:08:23.333Z,17.69
2022-09-12T14:10:50.246Z,17.69
2022-09-12T14:13:17.262Z,17.69
2022-09-12T14:15:44.425Z,17.69
2022-09-12T14:18:11.808Z,17.69
2022-09-12T14:20:38.767Z,17.69
2022-09-12T14:23:05.687Z,17.69
2022-09-12T14:25:32.627Z,17.69
2022-09-12T14:27:59.573Z,17.69
2022-09-12T14:30:26.491Z,17.69
2022-09-12T14:32:53.404Z,17.63
2022-09-12T14:35:20.333Z,17.63
2022-09-12T14:37:47.299Z,17.63
2022-09-12T14:40:14.294Z,17.63
2022-09-12T14:42:41.275Z,17.63
2022-09-12T14:45:08.196Z,17.63
2022-09-12T14:47:35.105Z,17.63
2022-09-12T14:50:02.167Z,17.63
2022-09-12T14:52:29.122Z,17.63
2022-09-12T14:54:56.037Z,17.63
2022-09-12T14:57:23.291Z,17.63
2022-09-12T14:59:50.244Z,17.63
2022-09-12T15:02:17.172Z,17.63
2022-09-12T15:04:44.183Z,17.63
2022-09-12T15:07:11.134Z,17.63
2022-09-12T15:09:38.767Z,17.63
2022-09-12T15:12:08.304Z,17.63
2022-09-12T15:14:35.415Z,17.63
2022-09-12T15:17:02.337Z,17.63
2022-09-12T15:19:29.300Z,17.63
2022-09-12T15:21:56.236Z,17.63
2022-09-12T15:24:23.376Z,17.63
2022-09-12T15:26:50.315Z,17.63
2022-09-12T15:29:17.230Z,17.63
2022-09-12T15:31:44.423Z,17.63
2022-09-12T15:34:11.786Z,17.63
2022-09-12T15:36:38.765Z,17.63
2022-09-12T15:39:05.659Z,17.63
2022-09-12T15:41:32.617Z,17.63
2022-09-12T15:43:59.550Z,17.63
2022-09-12T15:46:26.533Z,17.63
2022-09-12T15:48:53.445Z,17.63
2022-09-12T15:51:20.464Z,17.63
2022-09-12T15:53:47.463Z,17.63
2022-09-12T15:56:14.492Z,17.63
2022-09-12T15:58:57.118Z,17.63
2022-09-12T16:01:25.083Z,17.63
2022-09-12T16:03:52.103Z,17.63
2022-09-12T16:06:20.945Z,17.63
2022-09-12T16:08:48.022Z,17.63
2022-09-12T16:11:15.030Z,17.63
2022-09-12T16:13:41.961Z,17.63
2022-09-12T16:16:09.277Z,17.63
2022-09-12T16:18:36.303Z,17.63
2022-09-12T16:21:03.315Z,17.56
2022-09-12T16:23:30.222Z,17.63
2022-09-12T16:25:57.147Z,17.56
2022-09-12T16:28:24.161Z,17.56
2022-09-12T16:30:51.123Z,17.56
2022-09-12T16:33:18.656Z,17.63
2022-09-12T16:35:45.909Z,17.56
2022-09-12T16:38:12.879Z,17.56
2022-09-12T16:40:41.251Z,17.56
2022-09-12T16:43:08.217Z,17.56
2022-09-12T16:45:35.123Z,17.56
2022-09-12T16:48:02.045Z,17.56
2022-09-12T16:50:29.273Z,17.56
2022-09-12T16:52:56.505Z,17.56
2022-09-12T16:55:23.450Z,17.56
2022-09-12T16:57:50.412Z,17.56
2022-09-12T17:00:17.337Z,17.56
2022-09-12T17:02:44.518Z,17.56
2022-09-12T17:05:11.566Z,17.56
2022-09-12T17:07:38.524Z,17.56
2022-09-12T17:10:05.431Z,17.56
2022-09-12T17:12:32.382Z,17.56
2022-09-12T17:14:59.340Z,17.56
2022-09-12T17:17:26.462Z,17.56
2022-09-12T17:19:53.381Z,17.56
2022-09-12T17:22:20.341Z,17.56
2022-09-12T17:24:47.283Z,17.56
2022-09-12T17:27:14.260Z,17.56
2022-09-12T17:29:41.159Z,17.56
2022-09-12T17:32:08.101Z,17.56
2022-09-12T17:34:35.066Z,17.56
2022-09-12T17:37:02.029Z,17.50
2022-09-12T17:39:28.931Z,17.50
2022-09-12T17:41:55.828Z,17.56
2022-09-12T17:44:23.123Z,17.50
2022-09-12T17:46:50.141Z,17.56
2022-09-12T17:49:17.385Z,17.50
2022-09-12T17:51:44.355Z,17.50
2022-09-12T17:54:11.267Z,17.50
2022-09-12T17:56:38.214Z,17.50
2022-09-12T17:59:05.121Z,17.50
2022-09-12T18:01:32.104Z,17.50
2022-09-12T18:03:59.092Z,17.50
2022-09-12T18:06:26.001Z,17.50
2022-09-12T18:08:52.920Z,17.50
2022-09-12T18:11:19.868Z,17.50
2022-09-12T18:13:46.847Z,17.50
2022-09-12T18:16:13.863Z,17.50
2022-09-12T18:18:41.052Z,17.50
2022-09-12T18:21:07.947Z,17.50
2022-09-12T18:23:34.847Z,17.50
2022-09-12T18:26:01.792Z,17.50
2022-09-12T18:28:28.713Z,17.50
2022-09-12T18:30:55.693Z,17.50
2022-09-12T18:33:24.185Z,17.50
2022-09-12T18:35:51.265Z,17.50
2022-09-12T18:38:18.183Z,17.44
2022-09-12T18:40:45.099Z,17.44
2022-09-12T18:43:12.032Z,17.44
2022-09-12T18:45:39.199Z,17.44
2022-09-12T18:48:06.123Z,17.44
2022-09-12T18:50:33.372Z,17.44
2022-09-12T18:53:00.578Z,17.44
2022-09-12T18:55:27.511Z,17.44
2022-09-12T18:57:54.410Z,17.44
2022-09-12T19:00:21.537Z,17.44
2022-09-12T19:02:48.850Z,17.44
2022-09-12T19:05:15.785Z,17.44
2022-09-12T19:07:42.739Z,17.44
2022-09-12T19:10:09.688Z,17.44
2022-09-12T19:12:36.807Z,17.44
2022-09-12T19:15:03.718Z,17.44
2022-09-12T19:17:30.705Z,17.44
2022-09-12T19:19:57.624Z,17.44
2022-09-12T19:22:24.532Z,17.38
2022-09-12T19:24:51.500Z,17.44
2022-09-12T19:27:18.435Z,17.44
2022-09-12T19:29:45.357Z,17.44
2022-09-12T19:32:12.326Z,17.38
2022-09-12T19:34:39.260Z,17.38
2022-09-12T19:37:06.174Z,17.38
2022-09-12T19:39:33.124Z,17.38
2022-09-12T19:42:00.340Z,17.38
2022-09-12T19:44:27.385Z,17.38
2022-09-12T19:46:54.314Z,17.38
2022-09-12T19:49:21.224Z,17.38
2022-09-12T19:51:48.148Z,17.38
2022-09-12T19:54:15.063Z,17.38
2022-09-12T19:56:42.255Z,17.38
2022-09-12T19:59:09.188Z,17.38
2022-09-12T20:01:36.267Z,17.38
2022-09-12T20:04:03.241Z,17.38
2022-09-12T20:06:31.110Z,17.38
2022-09-12T20:08:58.036Z,17.38
2022-09-12T20:11:24.966Z,17.38
2022-09-12T20:13:51.909Z,17.38
2022-09-12T20:16:21.675Z,17.38
2022-09-12T20:18:49.597Z,17.38
2022-09-12T20:21:16.691Z,17.38
2022-09-12T20:23:43.584Z,17.38
2022-09-12T20:26:10.526Z,17.38
2022-09-12T20:28:37.569Z,17.38
2022-09-12T20:31:04.616Z,17.38
2022-09-12T20:33:31.567Z,17.38
2022-09-12T20:35:58.520Z,17.38
2022-09-12T20:38:25.447Z,17.38
2022-09-12T20:40:52.342Z,17.38
2022-09-12T20:43:19.294Z,17.31
2022-09-12T20:45:46.228Z,17.31
2022-09-12T20:48:13.152Z,17.31
2022-09-12T20:50:40.093Z,17.31
2022-09-12T20:53:07.048Z,17.31
2022-09-12T20:55:33.957Z,17.31
2022-09-12T20:58:00.959Z,17.31
2022-09-12T21:00:27.880Z,17.31
2022-09-12T21:02:54.883Z,17.31
2022-09-12T21:05:21.902Z,17.31
2022-09-12T21:07:48.811Z,17.31
2022-09-12T21:10:15.760Z,17.31
2022-09-12T21:12:42.763Z,17.31
2022-09-12T21:15:09.786Z,17.31
2022-09-12T21:17:36.843Z,17.31
2022-09-12T21:20:06.920Z,17.31
2022-09-12T21:22:36.187Z,17.31
2022-09-12T21:25:03.130Z,17.31
2022-09-12T21:27:30.391Z,17.31
2022-09-12T21:29:57.332Z,17.31
2022-09-12T21:32:24.357Z,17.31
2022-09-12T21:34:51.301Z,17.31
2022-09-12T21:37:18.323Z,17.31
2022-09-12T21:39:45.318Z,17.31
2022-09-12T21:42:12.499Z,17.31
2022-09-12T21:44:39.455Z,17.31
2022-09-12T21:47:06.390Z,17.31
2022-09-12T21:49:33.410Z,17.25
2022-09-12T21:52:00.374Z,17.25
2022-09-12T21:54:27.285Z,17.25
2022-09-12T21:56:54.187Z,17.25
2022-09-12T21:59:21.141Z,17.31
2022-09-12T22:01:48.135Z,17.25
2022-09-12T22:04:15.113Z,17.25
2022-09-12T22:06:42.071Z,17.25
2022-09-12T22:09:09.027Z,17.25
2022-09-12T22:11:35.947Z,17.25
2022-09-12T22:14:02.950Z,17.25
2022-09-12T22:16:29.879Z,17.25
2022-09-12T22:18:56.819Z,17.25
2022-09-12T22:21:23.756Z,17.25
2022-09-12T22:23:50.686Z,17.25
2022-09-12T22:26:17.605Z,17.25
2022-09-12T22:28:44.759Z,17.25
2022-09-12T22:31:11.797Z,17.25
2022-09-12T22:33:38.737Z,17.25
2022-09-12T22:36:05.675Z,17.25
2022-09-12T22:38:32.609Z,17.19
2022-09-12T22:40:59.616Z,17.25
2022-09-12T22:43:26.629Z,17.19
2022-09-12T22:45:53.556Z,17.19
2022-09-12T22:48:20.484Z,17.19
2022-09-12T22:50:47.470Z,17.19
2022-09-12T22:53:14.388Z,17.19
2022-09-12T22:55:41.313Z,17.19
2022-09-12T22:58:08.258Z,17.19
2022-09-12T23:00:35.246Z,17.19
2022-09-12T23:03:02.304Z,17.19
2022-09-12T23:05:29.273Z,17.19
2022-09-12T23:07:56.214Z,17.19
2022-09-12T23:10:23.147Z,17.19
2022-09-12T23:12:50.131Z,17.19
2022-09-12T23:15:17.056Z,17.19
2022-09-12T23:17:44.076Z,17.19
2022-09-12T23:20:10.991Z,17.19
2022-09-12T23:22:37.933Z,17.19
2022-09-12T23:25:04.892Z,17.19
2022-09-12T23:27:31.940Z,17.19
2022-09-12T23:29:58.862Z,17.19
2022-09-12T23:32:25.821Z,17.19
2022-09-12T23:34:52.746Z,17.19
2022-09-12T23:37:19.659Z,17.13
2022-09-12T23:39:46.665Z,17.13
2022-09-12T23:42:13.589Z,17.13
2022-09-12T23:44:40.532Z,17.13
2022-09-12T23:47:07.474Z,17.13
2022-09-12T23:49:34.420Z,17.13
2022-09-12T23:52:01.394Z,17.13
2022-09-12T23:54:28.329Z,17.13
2022-09-12T23:56:55.252Z,17.13
2022-09-12T23:59:22.169Z,17.13
